Time;durP1;ratioP1;P1;durP2;ratioP2;P2;SDS_P1;SDS_P2;PMS_P1;PMS_P2;Temp;Humidity;BMP_temperature;BMP_pressure;BME280_temperature;BME280_humidity;BME280_pressure;Samples;Min_cycle;Max_cycle;Signal;HPM_P1;HPM_P2
2021/05/04 00:03:47;;;;;;;10.30;5.72;;;5.50;57.10;;;;;;4955637;29;20066;-87
2021/05/04 00:09:36;;;;;;;13.30;6.13;;;5.50;57.10;;;;;;4955276;29;20388;-88
2021/05/04 00:19:18;;;;;;;11.75;5.95;;;5.40;57.20;;;;;;4955369;29;20038;-87
2021/05/04 00:25:08;;;;;;;10.15;4.80;;;5.40;57.40;;;;;;4955274;29;20082;-87
2021/05/04 00:30:56;;;;;;;10.55;5.38;;;5.40;57.50;;;;;;4955130;29;20158;-87
2021/05/04 00:36:45;;;;;;;12.70;5.90;;;5.50;57.70;;;;;;4954851;29;20107;-87
2021/05/04 00:42:33;;;;;;;10.98;5.47;;;5.50;57.80;;;;;;4958308;29;20077;-87
2021/05/04 00:48:22;;;;;;;11.98;5.63;;;5.50;57.80;;;;;;4958433;29;20038;-87
2021/05/04 00:54:11;;;;;;;12.57;5.25;;;5.50;57.90;;;;;;4958092;29;20150;-87
2021/05/04 01:00:04;;;;;;;11.10;5.13;;;5.50;57.90;;;;;;4957928;29;20083;-87
2021/05/04 01:05:52;;;;;;;10.35;5.22;;;5.60;58.00;;;;;;4958083;29;20034;-85
2021/05/04 01:11:42;;;;;;;11.32;5.75;;;5.60;58.10;;;;;;4957909;29;20046;-85
2021/05/04 01:21:24;;;;;;;10.13;5.28;;;5.60;58.10;;;;;;4957666;29;20436;-87
2021/05/04 01:27:16;;;;;;;10.23;5.32;;;5.60;58.20;;;;;;4957774;29;20387;-87
2021/05/04 01:33:05;;;;;;;10.15;5.20;;;5.60;58.30;;;;;;4959264;29;20059;-87
2021/05/04 01:38:56;;;;;;;9.10;4.70;;;5.60;58.30;;;;;;4957302;29;20030;-87
2021/05/04 01:44:46;;;;;;;10.70;5.07;;;5.60;58.40;;;;;;4957201;29;20026;-87
2021/05/04 01:50:35;;;;;;;12.50;5.13;;;5.60;58.40;;;;;;4956210;28;20119;-88
2021/05/04 01:56:25;;;;;;;10.45;4.75;;;5.60;58.40;;;;;;4956972;29;20070;-88
2021/05/04 02:02:14;;;;;;;10.90;5.22;;;5.60;58.30;;;;;;4956882;29;20406;-89
2021/05/04 02:08:03;;;;;;;10.75;5.82;;;5.50;58.30;;;;;;4956989;29;20066;-88
2021/05/04 02:13:52;;;;;;;10.20;5.40;;;5.40;58.20;;;;;;4956893;29;20034;-86
2021/05/04 02:23:36;;;;;;;11.65;5.70;;;5.30;58.30;;;;;;4956833;29;20050;-87
2021/05/04 02:29:25;;;;;;;11.73;5.60;;;5.20;58.40;;;;;;4956663;29;20026;-87
2021/05/04 02:35:14;;;;;;;10.82;5.70;;;5.20;58.50;;;;;;4956557;29;20041;-87
2021/05/04 02:41:04;;;;;;;10.38;5.35;;;5.10;58.30;;;;;;4956452;29;20407;-87
2021/05/04 02:46:53;;;;;;;11.63;5.25;;;5.10;58.40;;;;;;4956425;29;20042;-87
2021/05/04 02:52:42;;;;;;;10.10;5.35;;;5.00;58.40;;;;;;4955933;29;20041;-87
2021/05/04 02:58:32;;;;;;;11.43;6.03;;;5.00;58.50;;;;;;4955868;29;20367;-87
2021/05/04 03:04:20;;;;;;;11.40;5.63;;;4.90;58.60;;;;;;4956100;29;20530;-86
2021/05/04 03:10:09;;;;;;;11.40;5.57;;;4.90;58.60;;;;;;4955670;29;20034;-85
2021/05/04 03:15:58;;;;;;;10.50;5.68;;;4.80;58.50;;;;;;4955909;29;20075;-86
2021/05/04 03:25:43;;;;;;;10.80;5.65;;;4.80;58.60;;;;;;4955887;29;20090;-86
2021/05/04 03:31:31;;;;;;;13.23;6.43;;;4.70;58.70;;;;;;4955597;29;20122;-88
2021/05/04 03:37:21;;;;;;;11.18;6.00;;;4.70;58.90;;;;;;4955722;29;20050;-87
2021/05/04 03:43:11;;;;;;;11.65;5.50;;;4.70;58.90;;;;;;4964851;29;20046;-87
2021/05/04 03:49:00;;;;;;;12.52;6.18;;;4.70;59.10;;;;;;4962568;29;20067;-87
2021/05/04 03:54:49;;;;;;;12.88;5.93;;;4.70;59.00;;;;;;4967267;29;20387;-88
2021/05/04 04:00:40;;;;;;;10.55;5.55;;;4.80;59.20;;;;;;4956671;29;20039;-88
2021/05/04 04:06:28;;;;;;;9.75;5.32;;;4.80;59.40;;;;;;4955586;29;20046;-88
2021/05/04 04:12:17;;;;;;;10.90;5.10;;;4.90;59.50;;;;;;4960202;28;20113;-87
2021/05/04 04:18:07;;;;;;;10.57;5.35;;;5.10;59.70;;;;;;4958917;29;20063;-86
2021/05/04 04:27:50;;;;;;;11.43;5.60;;;5.40;60.30;;;;;;4958631;29;20042;-87
2021/05/04 04:33:42;;;;;;;10.50;5.40;;;5.70;60.80;;;;;;4958761;29;20439;-87
2021/05/04 04:39:32;;;;;;;11.98;5.50;;;6.20;61.00;;;;;;4958358;29;20030;-86
2021/05/04 04:45:20;;;;;;;9.88;4.53;;;6.60;61.30;;;;;;4958344;29;20110;-87
2021/05/04 04:51:09;;;;;;;9.60;4.38;;;7.00;61.40;;;;;;4958263;29;20138;-85
2021/05/04 04:56:58;;;;;;;8.77;4.30;;;7.40;61.50;;;;;;4958616;29;20034;-86
2021/05/04 05:02:46;;;;;;;9.75;4.53;;;7.80;61.60;;;;;;4958330;29;20079;-86
2021/05/04 05:08:34;;;;;;;12.35;4.97;;;8.20;61.80;;;;;;4957952;29;20098;-86
2021/05/04 05:14:25;;;;;;;8.73;4.45;;;8.60;62.00;;;;;;4957960;29;20054;-87
2021/05/04 05:20:38;;;;;;;7.63;3.72;;;9.10;62.30;;;;;;4957888;29;20035;-87
2021/05/04 05:30:52;;;;;;;8.45;4.10;;;9.80;62.00;;;;;;4957903;29;20105;-85
2021/05/04 05:36:41;;;;;;;8.85;4.22;;;10.10;62.00;;;;;;4957464;29;20376;-86
2021/05/04 06:13:08;;;;;;;7.55;3.47;;;11.10;61.50;;;;;;4956569;29;20045;-87
2021/05/04 06:27:14;;;;;;;;;;;;;;;;;;;;;
2021/05/04 06:40:10;;;;;;;9.30;3.83;;;12.00;61.40;;;;;;4826485;29;20032;-91
2021/05/04 07:49:02;;;;;;;5.30;2.53;;;14.10;61.00;;;;;;4959236;28;20074;-89
2021/05/04 08:11:11;;;;;;;5.38;2.50;;;14.90;60.30;;;;;;4908494;28;20046;-90
2021/05/04 08:17:00;;;;;;;4.45;2.38;;;15.10;60.10;;;;;;4903309;29;20425;-89
2021/05/04 08:23:46;;;;;;;7.45;2.80;;;15.30;59.70;;;;;;4961636;29;20031;-91
2021/05/04 09:23:00;;;;;;;5.00;2.47;;;17.30;57.90;;;;;;4899209;29;20465;-88
2021/05/04 09:28:57;;;;;;;5.82;2.53;;;17.80;57.90;;;;;;4900038;28;20073;-91
2021/05/04 09:34:50;;;;;;;6.80;2.72;;;18.20;58.00;;;;;;4957961;29;20038;-91
2021/05/04 09:48:10;;;;;;;4.72;2.10;;;18.90;58.20;;;;;;4908589;28;20448;-87
2021/05/04 09:54:22;;;;;;;5.93;2.30;;;19.10;57.60;;;;;;4898975;29;20053;-88
2021/05/04 10:30:25;;;;;;;3.65;1.83;;;21.00;55.80;;;;;;4937498;29;20063;-88
2021/05/04 10:36:39;;;;;;;5.18;2.58;;;20.90;55.80;;;;;;4937490;29;20086;-88
2021/05/04 10:42:40;;;;;;;3.90;2.00;;;21.20;55.30;;;;;;4937207;29;20043;-88
2021/05/04 10:48:46;;;;;;;5.32;2.10;;;21.00;53.80;;;;;;4937335;29;20042;-88
2021/05/04 10:54:54;;;;;;;3.15;1.60;;;20.90;54.30;;;;;;4936912;29;20035;-88
2021/05/04 11:14:42;;;;;;;3.03;1.73;;;21.40;49.90;;;;;;5788500;23;20047;-89
2021/05/04 11:20:46;;;;;;;2.30;1.33;;;21.40;50.10;;;;;;4976273;28;20041;-87
2021/05/04 11:27:04;;;;;;;2.35;1.58;;;20.80;47.90;;;;;;4974817;28;20486;-88
2021/05/04 11:40:24;;;;;;;4.63;1.92;;;20.00;47.30;;;;;;4934527;29;20070;-90
2021/05/04 11:54:08;;;;;;;;;;;;;;;;;;;;;
2021/05/04 12:36:01;;;;;;;;;;;;;;;;;;;;;
2021/05/04 12:41:52;;;;;;;2.20;1.45;;;22.00;43.90;;;;;;4958920;29;20034;-89
2021/05/04 12:47:57;;;;;;;2.40;1.60;;;21.90;41.50;;;;;;4958423;29;20035;-89
2021/05/04 13:18:34;;;;;;;2.10;1.63;;;19.50;40.40;;;;;;4957801;29;20035;-88
2021/05/04 13:30:46;;;;;;;2.67;1.58;;;19.10;40.50;;;;;;4958165;29;20042;-88
2021/05/04 13:36:53;;;;;;;1.60;1.27;;;19.00;40.00;;;;;;4957581;29;20062;-88
2021/05/04 13:48:48;;;;;;;3.60;1.85;;;18.80;40.50;;;;;;4957551;29;20035;-90
2021/05/04 13:54:38;;;;;;;3.05;1.73;;;18.60;39.70;;;;;;4957675;29;20042;-90
2021/05/04 14:00:36;;;;;;;2.83;1.80;;;18.30;40.40;;;;;;4957708;29;20038;-89
2021/05/04 15:05:15;;;;;;;2.22;1.63;;;18.00;41.30;;;;;;4956412;29;20030;-88
2021/05/04 15:11:29;;;;;;;;;;;;;;;;;;;;;
2021/05/04 15:20:43;;;;;;;4.32;1.80;;;16.90;41.80;;;;;;4956024;29;20082;-90
2021/05/04 15:23:36;;;;;;;6.72;2.10;;;16.80;42.30;;;;;;4906739;29;20435;-88
2021/05/04 15:29:26;;;;;;;1.38;1.27;;;16.90;42.70;;;;;;4955484;29;20038;-86
2021/05/04 15:35:16;;;;;;;8.43;2.38;;;16.90;42.90;;;;;;4955456;29;20030;-87
2021/05/04 15:41:05;;;;;;;3.08;1.65;;;16.80;42.80;;;;;;4955382;29;20061;-87
2021/05/04 15:47:09;;;;;;;3.33;1.77;;;16.50;43.20;;;;;;4955811;29;20427;-86
2021/05/04 16:09:13;;;;;;;1.50;1.40;;;16.00;44.00;;;;;;4955330;28;20034;-86
2021/05/04 16:15:00;;;;;;;3.10;1.58;;;16.00;44.90;;;;;;4958976;29;20034;-82
2021/05/04 16:26:50;;;;;;;2.35;1.58;;;15.50;45.30;;;;;;4959617;29;20034;-90
2021/05/04 16:32:39;;;;;;;2.05;1.55;;;15.00;45.90;;;;;;4958560;29;20503;-89
2021/05/04 16:38:27;;;;;;;2.47;1.58;;;14.60;46.60;;;;;;4968874;29;20047;-89
2021/05/04 16:44:16;;;;;;;3.53;1.67;;;14.30;47.00;;;;;;4967760;29;20107;-89
2021/05/04 16:50:05;;;;;;;1.60;1.40;;;13.80;47.40;;;;;;4966724;29;20034;-91
2021/05/04 16:59:55;;;;;;;2.05;1.40;;;14.00;49.10;;;;;;4958778;29;20067;-88
2021/05/04 17:05:50;;;;;;;2.47;1.33;;;14.00;49.50;;;;;;4958148;29;20070;-91
2021/05/04 17:12:13;;;;;;;2.83;1.42;;;14.00;50.30;;;;;;4958348;29;20506;-87
2021/05/04 17:18:44;;;;;;;2.25;1.50;;;13.90;50.10;;;;;;4957827;29;20122;-88
2021/05/04 17:25:05;;;;;;;2.85;1.77;;;13.80;51.00;;;;;;4958030;29;20073;-87
2021/05/04 17:31:27;;;;;;;9.55;3.53;;;13.80;50.90;;;;;;4957639;29;20158;-87
2021/05/04 17:37:19;;;;;;;2.00;1.60;;;13.60;51.10;;;;;;4957669;29;20034;-87
2021/05/04 17:43:09;;;;;;;3.03;2.00;;;13.20;51.10;;;;;;4959366;29;20041;-90
2021/05/04 17:49:37;;;;;;;1.65;1.35;;;13.20;52.20;;;;;;4958546;29;20046;-89
2021/05/04 17:56:07;;;;;;;4.10;1.98;;;13.00;52.40;;;;;;4956800;29;20129;-89
2021/05/04 18:08:59;;;;;;;3.58;2.05;;;12.90;53.00;;;;;;4899149;29;20072;-90
2021/05/04 18:15:18;;;;;;;3.25;1.70;;;12.70;52.80;;;;;;4957650;29;20544;-87
2021/05/04 18:21:08;;;;;;;6.57;2.47;;;12.60;53.20;;;;;;4956886;29;20067;-87
2021/05/04 18:26:58;;;;;;;4.63;2.22;;;12.50;53.50;;;;;;4956912;29;20064;-90
2021/05/04 18:32:47;;;;;;;4.22;2.08;;;12.50;53.60;;;;;;4956144;28;20043;-90
2021/05/04 18:38:52;;;;;;;4.38;2.05;;;12.50;53.70;;;;;;4956819;29;20487;-89
2021/05/04 20:07:46;;;;;;;5.15;2.45;;;12.60;56.10;;;;;;4962840;28;20075;-92
2021/05/04 20:13:36;;;;;;;1.77;1.33;;;12.50;55.80;;;;;;4962267;29;20098;-91
2021/05/04 20:19:24;;;;;;;0.85;0.82;;;11.40;54.70;;;;;;4962461;29;20067;-92
2021/05/04 20:32:03;;;;;;;3.30;1.60;;;10.70;57.50;;;;;;4846788;29;20144;-90
2021/05/04 20:44:45;;;;;;;1.42;1.33;;;10.50;58.70;;;;;;4821136;29;20065;-86
2021/05/04 20:50:34;;;;;;;1.23;1.13;;;10.60;59.00;;;;;;4963254;28;20045;-87
2021/05/04 20:56:24;;;;;;;0.77;0.77;;;10.50;59.40;;;;;;4959215;28;20183;-86
2021/05/04 21:02:13;;;;;;;0.80;0.80;;;10.60;59.80;;;;;;4960520;29;20515;-87
2021/05/04 21:08:03;;;;;;;0.73;0.73;;;10.60;60.10;;;;;;4958524;29;20042;-86
2021/05/04 21:13:55;;;;;;;2.17;1.35;;;10.60;60.40;;;;;;4957846;29;20456;-87
2021/05/04 21:25:40;;;;;;;1.05;1.00;;;10.60;60.60;;;;;;4957861;29;20137;-87
2021/05/04 21:31:29;;;;;;;1.10;0.90;;;10.60;60.90;;;;;;4957564;29;20030;-87
2021/05/04 21:37:25;;;;;;;1.35;1.23;;;10.60;60.90;;;;;;4957460;29;20077;-88
2021/05/04 21:43:14;;;;;;;1.13;1.00;;;10.60;61.20;;;;;;4957635;29;20035;-88
2021/05/04 21:49:10;;;;;;;3.75;1.50;;;10.60;61.70;;;;;;4957461;29;20053;-88
2021/05/04 21:54:58;;;;;;;1.55;1.42;;;10.50;61.50;;;;;;4957141;29;20062;-88
2021/05/04 22:00:53;;;;;;;1.70;1.38;;;10.50;61.70;;;;;;4938108;29;20528;-87
2021/05/04 22:06:44;;;;;;;2.85;1.20;;;10.40;61.60;;;;;;4936929;29;20043;-87
2021/05/04 22:12:35;;;;;;;1.52;1.13;;;10.30;61.70;;;;;;4937681;29;20059;-86
2021/05/04 22:36:31;;;;;;;1.45;0.85;;;10.00;62.10;;;;;;4937477;29;20098;-87
2021/05/04 22:42:25;;;;;;;1.45;0.90;;;9.70;61.90;;;;;;4937280;29;20396;-87
2021/05/04 22:48:49;;;;;;;2.75;1.20;;;9.60;62.40;;;;;;4937102;29;20082;-87
2021/05/04 23:01:24;;;;;;;1.27;0.85;;;9.40;62.90;;;;;;4956223;29;20400;-88
2021/05/04 23:19:19;;;;;;;2.15;1.10;;;9.40;63.40;;;;;;4915426;29;20094;-88
2021/05/04 23:25:12;;;;;;;1.92;0.93;;;9.60;63.60;;;;;;4915690;29;20035;-88
2021/05/04 23:31:00;;;;;;;0.90;0.90;;;9.60;63.60;;;;;;4915735;29;20039;-87
2021/05/04 23:36:49;;;;;;;1.92;0.98;;;9.60;63.60;;;;;;4931107;29;20086;-86
2021/05/04 23:42:39;;;;;;;0.80;0.80;;;9.60;63.50;;;;;;4955695;29;20034;-87
2021/05/04 23:48:31;;;;;;;1.05;1.05;;;9.50;63.50;;;;;;4955421;29;20042;-88
2021/05/04 23:54:20;;;;;;;4.30;1.30;;;9.40;63.80;;;;;;4955516;29;20055;-87
